Time;durP1;ratioP1;P1;durP2;ratioP2;P2;SDS_P1;SDS_P2;PMS_P1;PMS_P2;Temp;Humidity;BMP_temperature;BMP_pressure;BME280_temperature;BME280_humidity;BME280_pressure;Samples;Min_cycle;Max_cycle;Signal;HPM_P1;HPM_P2
2021/12/22 00:00:37;;;;;;;8.70;2.90;;;;;;;-4.59;95.43;100854.69;102211;1314;72264;-65
2021/12/22 00:03:25;;;;;;;10.00;2.80;;;;;;;-4.58;95.37;100860.05;102192;1310;68341;-65
2021/12/22 00:06:20;;;;;;;12.00;3.20;;;;;;;-4.55;95.62;100859.17;102753;1313;71895;-66
2021/12/22 00:09:08;;;;;;;11.60;3.80;;;;;;;-4.46;96.08;100863.48;101762;1315;1003141;-65
2021/12/22 00:11:56;;;;;;;10.10;3.40;;;;;;;-4.36;95.73;100863.27;102386;1310;60157;-65
2021/12/22 00:14:46;;;;;;;11.40;3.00;;;;;;;-4.28;95.40;100862.02;102639;1310;71758;-65
2021/12/22 00:17:34;;;;;;;9.50;3.00;;;;;;;-4.22;94.81;100857.67;101595;1313;1002695;-66
2021/12/22 00:20:22;;;;;;;7.90;2.40;;;;;;;-4.20;94.40;100860.61;102143;1310;73484;-65
2021/12/22 00:23:10;;;;;;;8.10;2.40;;;;;;;-4.20;94.36;100864.07;102492;1314;59712;-65
2021/12/22 00:25:57;;;;;;;7.60;2.50;;;;;;;-4.22;94.18;100864.79;101577;1316;1003192;-65
2021/12/22 00:28:46;;;;;;;8.60;2.10;;;;;;;-4.24;94.46;100863.40;101355;1317;1002980;-66
2021/12/22 00:31:56;;;;;;;6.30;2.10;;;;;;;-4.27;94.24;100867.23;102182;1314;65529;-65
2021/12/22 00:34:50;;;;;;;6.80;2.30;;;;;;;-4.28;94.36;100867.05;102120;1311;71355;-65
2021/12/22 00:37:38;;;;;;;8.40;2.40;;;;;;;-4.26;94.19;100869.13;102033;1310;60184;-65
2021/12/22 00:40:26;;;;;;;6.20;1.80;;;;;;;-4.20;94.36;100877.08;102183;1311;61220;-65
2021/12/22 00:43:14;;;;;;;6.00;1.80;;;;;;;-4.12;94.45;100883.45;101697;1314;1003803;-66
2021/12/22 00:46:03;;;;;;;6.40;1.70;;;;;;;-4.01;94.60;100882.72;102161;1310;68387;-65
2021/12/22 00:48:52;;;;;;;6.70;1.70;;;;;;;-3.92;94.50;100882.33;102131;1310;73021;-65
2021/12/22 00:51:40;;;;;;;6.00;1.70;;;;;;;-3.83;94.39;100881.75;102286;1311;59819;-65
2021/12/22 00:54:28;;;;;;;6.30;2.10;;;;;;;-3.76;94.45;100883.12;101539;1311;1003921;-65
2021/12/22 00:57:17;;;;;;;6.90;2.10;;;;;;;-3.70;94.23;100885.33;102616;1314;73890;-65
2021/12/22 01:00:07;;;;;;;6.60;1.70;;;;;;;-3.65;94.14;100882.70;102156;1311;68046;-65
2021/12/22 01:02:55;;;;;;;6.30;1.80;;;;;;;-3.62;94.11;100885.11;102026;1316;71584;-65
2021/12/22 01:05:44;;;;;;;8.00;2.10;;;;;;;-3.58;94.25;100887.86;101487;1312;1003919;-65
2021/12/22 01:08:32;;;;;;;9.90;2.20;;;;;;;-3.52;93.98;100889.20;102529;1311;60590;-65
2021/12/22 01:11:20;;;;;;;11.10;2.30;;;;;;;-3.44;93.95;100897.48;101832;1313;1002991;-65
2021/12/22 01:14:08;;;;;;;7.80;2.20;;;;;;;-3.35;93.78;100904.89;102243;1311;66933;-66
2021/12/22 01:17:00;;;;;;;7.60;2.00;;;;;;;-3.25;93.64;100903.78;102489;1310;72879;-65
2021/12/22 01:20:00;;;;;;;8.40;1.90;;;;;;;-3.19;93.33;100901.13;102207;1310;59723;-65
2021/12/22 01:22:50;;;;;;;8.10;2.10;;;;;;;-3.14;93.18;100903.87;102446;1310;59618;-65
2021/12/22 01:25:47;;;;;;;6.30;1.80;;;;;;;-3.10;93.07;100900.88;102233;1313;71909;-65
2021/12/22 01:28:41;;;;;;;7.20;2.00;;;;;;;-3.08;93.06;100895.30;102332;1311;68767;-65
2021/12/22 01:31:28;;;;;;;10.80;3.10;;;;;;;-3.09;92.76;100893.06;101738;1313;1003643;-65
2021/12/22 01:34:16;;;;;;;17.20;4.80;;;;;;;-3.14;92.26;100892.41;102479;1310;59844;-65
2021/12/22 01:37:04;;;;;;;21.20;6.10;;;;;;;-3.21;91.67;100886.21;102264;1310;59688;-65
2021/12/22 01:39:51;;;;;;;15.00;4.40;;;;;;;-3.25;91.65;100887.45;102352;1317;72892;-65
2021/12/22 01:42:41;;;;;;;11.30;3.90;;;;;;;-3.26;91.46;100880.36;102252;1313;67214;-65
2021/12/22 01:49:11;;;;;;;10.60;3.20;;;;;;;-3.25;91.49;100888.66;102546;1314;59761;-66
2021/12/22 01:52:06;;;;;;;11.10;3.40;;;;;;;-3.25;90.98;100889.02;101473;1314;1003640;-66
2021/12/22 01:55:02;;;;;;;8.50;3.10;;;;;;;-3.29;90.70;100885.06;102390;1313;72503;-66
2021/12/22 01:57:50;;;;;;;9.30;3.00;;;;;;;-3.35;90.44;100886.33;102680;1311;66924;-66
2021/12/22 02:00:38;;;;;;;8.90;2.90;;;;;;;-3.43;90.39;100882.90;102205;1317;73431;-66
2021/12/22 02:03:26;;;;;;;8.40;2.70;;;;;;;-3.48;90.58;100888.48;102293;1310;59764;-65
2021/12/22 02:06:15;;;;;;;8.70;2.90;;;;;;;-3.51;90.93;100890.93;101131;1310;1003105;-66
2021/12/22 02:09:04;;;;;;;8.00;2.40;;;;;;;-3.55;91.50;100893.73;102121;1310;73426;-65
2021/12/22 02:11:52;;;;;;;10.60;3.20;;;;;;;-3.55;91.76;100895.48;101472;1313;1002397;-66
2021/12/22 02:14:42;;;;;;;8.50;2.80;;;;;;;-3.52;92.30;100897.36;101515;1313;1016369;-65
2021/12/22 02:17:29;;;;;;;7.70;2.70;;;;;;;-3.46;92.68;100900.79;102334;1317;59797;-66
2021/12/22 02:20:17;;;;;;;9.50;2.60;;;;;;;-3.41;92.93;100900.24;102195;1313;59702;-66
2021/12/22 02:23:04;;;;;;;7.60;2.20;;;;;;;-3.35;92.90;100901.43;102423;1312;70848;-66
2021/12/22 02:26:08;;;;;;;11.10;3.20;;;;;;;-3.31;93.08;100902.95;102033;1310;65660;-66
2021/12/22 02:29:06;;;;;;;31.60;11.40;;;;;;;-3.27;93.28;100891.80;102389;1316;73430;-66
2021/12/22 02:32:05;;;;;;;59.30;20.50;;;;;;;-3.23;92.99;100890.75;102565;1317;59710;-66
2021/12/22 02:35:00;;;;;;;90.00;27.40;;;;;;;-3.24;92.56;100884.15;102702;1310;60760;-66
2021/12/22 02:37:47;;;;;;;79.00;25.50;;;;;;;-3.24;93.10;100883.45;101654;1314;1005366;-66
2021/12/22 02:40:35;;;;;;;52.70;18.30;;;;;;;-3.22;92.99;100880.84;102198;1310;67522;-66
2021/12/22 02:43:24;;;;;;;27.70;12.50;;;;;;;-3.22;92.80;100875.82;102250;1310;73004;-66
2021/12/22 02:46:14;;;;;;;20.60;7.60;;;;;;;-3.24;92.85;100878.23;102126;1310;59672;-66
2021/12/22 02:49:06;;;;;;;13.20;5.10;;;;;;;-3.20;92.74;100875.63;102225;1313;59424;-66
2021/12/22 02:51:53;;;;;;;10.70;3.50;;;;;;;-3.18;92.54;100873.35;102188;1314;71902;-66
2021/12/22 02:54:56;;;;;;;9.40;2.70;;;;;;;-3.17;92.32;100877.15;102412;1310;68548;-66
2021/12/22 02:57:49;;;;;;;25.80;9.80;;;;;;;-3.17;92.03;100876.30;102177;1314;72001;-65
2021/12/22 03:06:36;;;;;;;29.40;11.40;;;;;;;-3.40;92.01;100876.28;102272;1310;73485;-66
2021/12/22 03:09:25;;;;;;;17.40;6.90;;;;;;;-3.49;91.95;100874.79;102192;1314;1003736;-66
2021/12/22 03:12:15;;;;;;;11.70;4.80;;;;;;;-3.59;91.88;100868.77;101733;1310;1003365;-66
2021/12/22 03:15:06;;;;;;;29.10;11.60;;;;;;;-3.70;91.98;100872.15;102698;1310;59694;-66
2021/12/22 03:17:54;;;;;;;26.20;8.70;;;;;;;-3.81;92.08;100871.17;102146;1314;59602;-66
2021/12/22 03:20:44;;;;;;;27.10;9.60;;;;;;;-3.94;92.35;100872.63;102526;1310;74988;-66
2021/12/22 03:23:32;;;;;;;31.20;11.00;;;;;;;-4.02;92.45;100875.27;102687;1314;68374;-66
2021/12/22 03:26:22;;;;;;;17.90;7.80;;;;;;;-4.06;92.69;100886.55;102308;1311;73231;-66
2021/12/22 03:29:16;;;;;;;17.40;8.00;;;;;;;-4.09;92.85;100887.95;102490;1311;59711;-66
2021/12/22 03:32:09;;;;;;;11.80;4.70;;;;;;;-4.07;93.33;100891.06;102364;1311;60530;-65
2021/12/22 03:34:57;;;;;;;10.10;3.80;;;;;;;-4.03;93.68;100885.84;102349;1311;73506;-65
2021/12/22 03:37:56;;;;;;;9.00;3.10;;;;;;;-4.00;93.70;100891.02;101354;1316;1003685;-65
2021/12/22 03:40:43;;;;;;;6.60;2.20;;;;;;;-3.97;93.70;100895.70;102530;1311;71548;-65
2021/12/22 03:43:31;;;;;;;6.70;1.70;;;;;;;-3.93;93.68;100897.24;102047;1314;59776;-65
2021/12/22 03:46:19;;;;;;;7.10;1.90;;;;;;;-3.91;93.71;100898.11;102611;1314;60860;-65
2021/12/22 03:49:11;;;;;;;7.50;2.00;;;;;;;-3.92;93.69;100897.41;102625;1317;73833;-65
2021/12/22 03:51:58;;;;;;;7.00;2.10;;;;;;;-3.94;93.56;100901.41;102004;1310;1003868;-66
2021/12/22 03:54:46;;;;;;;7.80;1.90;;;;;;;-3.97;93.34;100900.21;101909;1316;73238;-66
2021/12/22 03:57:34;;;;;;;8.20;2.60;;;;;;;-3.99;93.32;100908.02;102081;1314;60181;-66
2021/12/22 04:00:22;;;;;;;9.30;2.60;;;;;;;-3.98;93.51;100904.21;102191;1311;60705;-66
2021/12/22 04:03:16;;;;;;;8.00;2.50;;;;;;;-3.94;93.79;100909.39;102232;1310;73345;-66
2021/12/22 04:06:06;;;;;;;6.80;2.30;;;;;;;-3.89;94.11;100906.06;102024;1311;67039;-66
2021/12/22 04:08:54;;;;;;;8.10;2.10;;;;;;;-3.82;94.38;100905.86;102242;1311;73033;-66
2021/12/22 04:11:46;;;;;;;8.70;2.30;;;;;;;-3.75;94.30;100905.82;102062;1316;59749;-65
2021/12/22 04:14:33;;;;;;;7.00;1.90;;;;;;;-3.68;94.31;100909.77;102554;1314;59679;-66
2021/12/22 04:17:21;;;;;;;7.60;2.30;;;;;;;-3.62;94.37;100910.95;102382;1310;73355;-65
2021/12/22 04:20:11;;;;;;;6.70;2.00;;;;;;;-3.56;94.44;100905.03;102154;1311;68084;-65
2021/12/22 04:23:00;;;;;;;6.60;2.00;;;;;;;-3.52;94.21;100905.88;102304;1313;72890;-65
2021/12/22 04:25:47;;;;;;;6.60;1.80;;;;;;;-3.49;93.97;100908.10;102482;1311;59600;-65
2021/12/22 04:28:51;;;;;;;8.50;2.20;;;;;;;-3.47;93.72;100904.98;102378;1311;60462;-66
2021/12/22 04:31:39;;;;;;;12.20;4.30;;;;;;;-3.47;93.72;100908.44;102404;1311;72059;-66
2021/12/22 04:34:27;;;;;;;17.80;8.00;;;;;;;-3.47;93.63;100910.68;102310;1310;67995;-65
2021/12/22 04:37:15;;;;;;;19.70;7.70;;;;;;;-3.44;93.57;100914.15;102551;1310;73265;-66
2021/12/22 04:40:04;;;;;;;27.70;7.10;;;;;;;-3.39;93.64;100912.55;102634;1310;59679;-67
2021/12/22 04:42:52;;;;;;;20.70;6.30;;;;;;;-3.35;93.37;100918.25;102549;1314;59659;-67
2021/12/22 04:45:40;;;;;;;17.90;4.60;;;;;;;-3.39;93.04;100913.94;102199;1311;73670;-67
2021/12/22 04:48:28;;;;;;;13.80;4.10;;;;;;;-3.43;92.81;100914.48;102499;1311;68366;-66
2021/12/22 04:51:29;;;;;;;19.30;5.90;;;;;;;-3.49;92.73;100916.09;102549;1311;73152;-66
2021/12/22 04:54:30;;;;;;;19.30;4.80;;;;;;;-3.56;92.64;100912.66;101753;1311;1003518;-67
2021/12/22 04:57:18;;;;;;;20.20;4.70;;;;;;;-3.60;92.88;100912.68;102750;1311;59608;-66
2021/12/22 05:00:10;;;;;;;15.60;4.60;;;;;;;-3.64;92.11;100912.88;102319;1310;71837;-65
2021/12/22 05:02:58;;;;;;;14.70;4.40;;;;;;;-3.67;91.53;100915.14;101578;1310;1003016;-66
2021/12/22 05:05:46;;;;;;;18.30;4.80;;;;;;;-3.73;91.05;100910.48;101692;1313;1003785;-66
2021/12/22 05:08:34;;;;;;;16.30;4.80;;;;;;;-3.78;90.60;100905.67;101770;1310;1003879;-66
2021/12/22 05:11:22;;;;;;;19.00;5.60;;;;;;;-3.81;89.93;100906.37;102741;1310;59683;-66
2021/12/22 05:14:10;;;;;;;21.90;5.20;;;;;;;-3.84;89.74;100904.83;102319;1310;72086;-65
2021/12/22 05:17:01;;;;;;;23.80;5.80;;;;;;;-3.87;89.53;100906.58;101645;1310;1002946;-65
2021/12/22 05:19:49;;;;;;;23.60;5.80;;;;;;;-3.92;89.17;100903.31;102388;1316;73076;-66
2021/12/22 05:22:37;;;;;;;17.90;4.70;;;;;;;-3.97;88.78;100911.30;102548;1314;59723;-66
2021/12/22 05:25:25;;;;;;;17.40;5.00;;;;;;;-4.03;88.78;100911.85;102582;1313;60682;-65
2021/12/22 05:28:13;;;;;;;18.30;4.90;;;;;;;-4.10;88.56;100907.72;102542;1311;73232;-65
2021/12/22 05:31:00;;;;;;;19.00;5.50;;;;;;;-4.17;88.49;100909.82;102774;1311;68435;-66
2021/12/22 05:33:48;;;;;;;19.80;5.20;;;;;;;-4.27;88.37;100913.51;102490;1310;71615;-65
2021/12/22 05:36:35;;;;;;;16.00;4.80;;;;;;;-4.34;88.60;100914.73;101924;1316;1003088;-66
2021/12/22 05:39:23;;;;;;;15.60;4.30;;;;;;;-4.42;88.70;100915.45;102731;1314;60507;-65
2021/12/22 05:42:11;;;;;;;23.50;5.90;;;;;;;-4.46;88.88;100923.95;102441;1311;73309;-66
2021/12/22 05:44:58;;;;;;;39.00;9.20;;;;;;;-4.50;88.49;100928.45;102388;1316;68225;-66
2021/12/22 05:47:46;;;;;;;16.50;4.90;;;;;;;-4.49;88.90;100940.23;102312;1317;72748;-67
2021/12/22 05:50:36;;;;;;;15.80;3.70;;;;;;;-4.44;88.64;100943.86;102220;1310;59707;-66
2021/12/22 05:53:25;;;;;;;9.10;2.50;;;;;;;-4.41;88.45;100939.52;102495;1310;59609;-66
2021/12/22 05:56:13;;;;;;;10.00;2.40;;;;;;;-4.42;88.18;100934.84;102391;1314;73472;-66
2021/12/22 05:59:00;;;;;;;6.70;2.60;;;;;;;-4.35;88.09;100938.30;102833;1307;68822;-67
2021/12/22 06:01:48;;;;;;;7.20;2.40;;;;;;;-4.33;88.32;100945.41;102183;1310;381363;-67
2021/12/22 06:04:36;;;;;;;8.10;3.20;;;;;;;-4.30;88.89;100949.54;102135;1311;59720;-66
2021/12/22 06:07:24;;;;;;;9.70;2.30;;;;;;;-4.26;89.09;100950.92;102210;1316;61204;-67
2021/12/22 06:10:11;;;;;;;9.70;3.00;;;;;;;-4.24;89.68;100952.83;102550;1310;73817;-67
2021/12/22 06:12:59;;;;;;;8.50;3.20;;;;;;;-4.21;89.97;100955.95;101807;1311;1003875;-66
2021/12/22 06:15:47;;;;;;;8.20;2.90;;;;;;;-4.20;90.03;100952.30;102379;1317;70872;-67
2021/12/22 06:18:40;;;;;;;12.50;4.10;;;;;;;-4.18;90.42;100951.23;102233;1316;60012;-67
2021/12/22 06:21:29;;;;;;;12.30;4.90;;;;;;;-4.15;90.36;100952.98;102346;1313;59683;-67
2021/12/22 06:24:17;;;;;;;12.90;5.50;;;;;;;-4.11;90.47;100955.05;102301;1311;73377;-66
2021/12/22 06:27:04;;;;;;;13.00;5.50;;;;;;;-4.04;90.88;100954.16;102277;1311;68714;-66
2021/12/22 06:29:52;;;;;;;11.00;4.60;;;;;;;-3.97;90.72;100957.77;102867;1317;72849;-66
2021/12/22 06:32:40;;;;;;;10.20;4.00;;;;;;;-3.93;90.91;100953.42;102334;1313;59628;-66
2021/12/22 06:35:28;;;;;;;12.10;4.20;;;;;;;-3.88;91.03;100959.65;102701;1310;59332;-66
2021/12/22 06:38:17;;;;;;;13.50;4.50;;;;;;;-3.86;91.05;100962.24;102653;1310;73414;-66
2021/12/22 06:41:06;;;;;;;12.70;5.90;;;;;;;-3.87;91.07;100964.15;102736;1316;68199;-65
2021/12/22 06:43:56;;;;;;;19.20;7.40;;;;;;;-3.90;90.88;100964.16;102520;1314;71536;-66
2021/12/22 06:46:47;;;;;;;14.20;5.10;;;;;;;-3.93;90.49;100967.11;102502;1311;59689;-66
2021/12/22 06:49:37;;;;;;;13.30;4.70;;;;;;;-3.99;90.16;100967.84;102114;1310;1003248;-67
2021/12/22 06:52:24;;;;;;;11.20;4.20;;;;;;;-4.05;89.97;100973.40;102387;1316;73301;-67
2021/12/22 06:55:12;;;;;;;11.60;4.40;;;;;;;-4.12;90.10;100973.77;102667;1310;65899;-67
2021/12/22 06:58:00;;;;;;;15.90;5.40;;;;;;;-4.14;90.22;100973.42;102522;1311;71596;-67
2021/12/22 07:00:53;;;;;;;18.30;4.90;;;;;;;-4.13;90.24;100977.75;102585;1313;59676;-67
2021/12/22 07:03:40;;;;;;;12.90;5.10;;;;;;;-4.09;89.86;100975.33;102451;1316;59695;-66
2021/12/22 07:06:30;;;;;;;16.80;5.50;;;;;;;-4.03;89.64;100975.83;102787;1311;72316;-66
2021/12/22 07:09:18;;;;;;;12.10;4.00;;;;;;;-3.96;89.29;100979.44;103002;1310;66838;-66
2021/12/22 07:12:10;;;;;;;13.50;4.40;;;;;;;-3.96;88.33;100978.57;102885;1316;72089;-66
2021/12/22 07:14:58;;;;;;;13.70;4.50;;;;;;;-3.96;89.21;100979.61;102417;1317;59780;-67
2021/12/22 07:17:49;;;;;;;14.40;4.80;;;;;;;-3.88;89.85;100977.34;102783;1312;60829;-69
2021/12/22 07:20:37;;;;;;;12.20;5.20;;;;;;;-3.88;88.40;100977.33;102079;1317;1003101;-70
2021/12/22 07:23:24;;;;;;;14.40;4.60;;;;;;;-3.88;88.65;100979.59;102569;1317;66889;-70
2021/12/22 07:26:13;;;;;;;14.60;5.10;;;;;;;-3.80;90.34;100979.55;102474;1309;70585;-71
2021/12/22 07:29:01;;;;;;;15.30;5.90;;;;;;;-3.74;88.47;100980.75;102469;1310;59853;-67
2021/12/22 07:31:49;;;;;;;13.20;5.10;;;;;;;-3.80;86.97;100975.39;102709;1313;59701;-66
2021/12/22 07:35:10;;;;;;;12.10;4.20;;;;;;;-3.74;86.84;100983.01;102318;1314;73302;-66
2021/12/22 07:38:19;;;;;;;9.50;3.20;;;;;;;-3.71;86.36;100983.16;102655;1310;67004;-68
2021/12/22 07:41:09;;;;;;;10.70;4.10;;;;;;;-3.68;86.23;100990.43;102782;1311;71357;-67
2021/12/22 07:43:57;;;;;;;10.70;3.70;;;;;;;-3.65;85.79;100990.07;102784;1310;59710;-67
2021/12/22 07:46:45;;;;;;;9.10;3.20;;;;;;;-3.63;85.39;100990.59;102648;1317;59978;-68
2021/12/22 07:49:32;;;;;;;11.00;4.60;;;;;;;-3.62;85.44;100990.77;103027;1311;71854;-68
2021/12/22 07:52:19;;;;;;;11.60;4.60;;;;;;;-3.60;85.59;100989.36;102575;1311;68813;-68
2021/12/22 07:55:08;;;;;;;14.60;5.80;;;;;;;-3.58;85.53;100987.61;102701;1316;71835;-68
2021/12/22 07:57:56;;;;;;;16.80;7.00;;;;;;;-3.55;85.08;100995.23;102890;1311;59990;-69
2021/12/22 08:00:43;;;;;;;19.40;7.50;;;;;;;-3.53;84.62;100993.14;102543;1317;59679;-67
2021/12/22 08:03:31;;;;;;;18.60;7.30;;;;;;;-3.49;83.86;100997.98;102040;1317;1003053;-67
2021/12/22 08:06:35;;;;;;;19.50;8.60;;;;;;;-3.44;83.50;101000.22;102675;1311;67234;-68
2021/12/22 08:09:26;;;;;;;22.00;8.80;;;;;;;-3.35;82.76;100997.56;102217;1311;71595;-67
2021/12/22 08:12:14;;;;;;;18.90;7.90;;;;;;;-3.31;82.16;100996.33;102575;1316;60118;-68
2021/12/22 08:15:03;;;;;;;21.20;9.20;;;;;;;-3.28;81.84;100994.73;101759;1316;1002854;-67
2021/12/22 08:17:52;;;;;;;18.60;7.70;;;;;;;-3.24;81.88;100998.03;102502;1310;73014;-68
2021/12/22 08:20:40;;;;;;;20.70;8.60;;;;;;;-3.26;81.71;100998.38;102609;1316;66924;-67
2021/12/22 08:23:28;;;;;;;24.20;10.00;;;;;;;-3.28;81.73;100997.17;102652;1314;74014;-67
2021/12/22 08:26:16;;;;;;;27.10;10.50;;;;;;;-3.31;81.50;100997.72;102179;1316;59697;-67
2021/12/22 08:29:07;;;;;;;26.00;10.00;;;;;;;-3.33;81.61;101003.46;102488;1314;60540;-68
2021/12/22 08:31:55;;;;;;;25.50;9.90;;;;;;;-3.36;81.49;100999.83;102466;1317;73547;-67
2021/12/22 08:34:46;;;;;;;27.10;11.30;;;;;;;-3.36;81.83;100998.09;102299;1316;68057;-67
2021/12/22 08:40:43;;;;;;;25.80;11.30;;;;;;;-3.42;81.30;101000.55;102720;1310;59733;-67
2021/12/22 08:43:31;;;;;;;25.40;10.40;;;;;;;-3.37;81.35;100996.02;102379;1311;59573;-68
2021/12/22 08:46:20;;;;;;;26.20;10.70;;;;;;;-3.33;80.89;100988.54;102810;1314;71557;-68
2021/12/22 08:49:08;;;;;;;36.40;13.70;;;;;;;-3.28;81.40;100991.79;102695;1311;65391;-67
2021/12/22 08:51:56;;;;;;;26.50;10.50;;;;;;;-3.23;80.76;100997.15;102550;1316;72853;-68
2021/12/22 08:54:44;;;;;;;26.40;11.30;;;;;;;-3.25;80.77;100993.16;102003;1310;1003716;-68
2021/12/22 08:57:32;;;;;;;23.90;9.10;;;;;;;-3.21;81.54;100994.54;102521;1316;59621;-68
2021/12/22 09:00:19;;;;;;;25.10;10.00;;;;;;;-3.12;81.89;100996.91;102031;1310;1003917;-67
2021/12/22 09:03:07;;;;;;;29.10;10.20;;;;;;;-3.04;81.64;100997.71;101842;1314;1002943;-68
2021/12/22 09:05:56;;;;;;;20.40;8.00;;;;;;;-2.95;81.80;100995.94;102413;1316;71623;-68
2021/12/22 09:08:44;;;;;;;23.00;8.60;;;;;;;-2.85;82.30;100997.95;102500;1311;59665;-67
2021/12/22 09:11:32;;;;;;;19.90;7.40;;;;;;;-2.75;82.25;100994.55;102347;1310;60624;-68
2021/12/22 09:14:21;;;;;;;17.00;7.00;;;;;;;-2.62;82.36;100988.70;102500;1317;73838;-71
2021/12/22 09:17:09;;;;;;;19.40;7.90;;;;;;;-2.48;82.19;100987.55;102043;1314;1002896;-70
2021/12/22 09:19:57;;;;;;;22.90;8.40;;;;;;;-2.33;81.98;100990.38;102589;1316;71751;-70
2021/12/22 09:22:45;;;;;;;32.60;11.70;;;;;;;-2.21;81.63;100989.73;102690;1317;59796;-69
2021/12/22 09:25:33;;;;;;;28.90;11.00;;;;;;;-2.07;81.37;100984.90;102795;1314;60507;-69
2021/12/22 09:28:21;;;;;;;29.10;10.70;;;;;;;-1.93;80.90;100982.65;102717;1311;72997;-71
2021/12/22 09:31:09;;;;;;;25.00;9.30;;;;;;;-1.79;80.79;100982.13;102509;1311;68512;-72
2021/12/22 09:33:58;;;;;;;19.60;7.70;;;;;;;-1.68;80.14;100979.56;102345;1314;73274;-70
2021/12/22 09:36:46;;;;;;;17.50;6.90;;;;;;;-1.64;79.24;100977.95;102602;1317;59688;-70
2021/12/22 09:39:33;;;;;;;20.60;7.50;;;;;;;-1.58;79.36;100975.62;102711;1317;60499;-71
2021/12/22 09:42:21;;;;;;;20.20;7.80;;;;;;;-1.53;78.40;100972.25;102760;1316;73754;-71
2021/12/22 09:45:09;;;;;;;21.20;8.10;;;;;;;-1.47;78.48;100973.03;102854;1317;68173;-69
2021/12/22 09:53:55;;;;;;;22.60;8.90;;;;;;;-1.14;76.61;100980.93;102526;1317;60380;-70
2021/12/22 09:56:42;;;;;;;26.50;10.20;;;;;;;-1.02;74.81;100980.04;102355;1316;73230;-71
2021/12/22 09:59:33;;;;;;;23.50;8.90;;;;;;;-0.86;72.00;100981.71;102909;1314;65661;-71
2021/12/22 10:02:27;;;;;;;26.50;10.20;;;;;;;-0.72;71.56;100978.89;102391;1317;72942;-71
2021/12/22 10:05:16;;;;;;;26.90;10.00;;;;;;;-0.72;69.12;100976.44;102867;1311;59735;-70
2021/12/22 10:08:11;;;;;;;23.90;9.60;;;;;;;-0.74;69.15;100976.65;102691;1316;59782;-72
2021/12/22 10:11:10;;;;;;;20.00;8.20;;;;;;;-0.74;69.69;100975.08;102773;1317;73324;-71
2021/12/22 10:14:20;;;;;;;23.30;9.00;;;;;;;-0.69;68.67;100970.29;102521;1317;67097;-70
2021/12/22 10:17:12;;;;;;;18.60;6.70;;;;;;;-0.68;68.50;100971.84;102605;1317;73207;-69
2021/12/22 10:20:08;;;;;;;21.30;8.40;;;;;;;-0.60;68.89;100968.39;103065;1317;59715;-70
2021/12/22 10:22:55;;;;;;;22.40;8.10;;;;;;;-0.43;68.82;100963.40;102463;1316;61006;-70
2021/12/22 10:25:43;;;;;;;20.00;8.70;;;;;;;-0.20;68.58;100961.93;102778;1317;73294;-70
2021/12/22 10:28:57;;;;;;;21.40;8.60;;;;;;;0.10;68.12;100961.34;102550;1317;67482;-71
2021/12/22 10:31:46;;;;;;;22.50;8.40;;;;;;;0.16;67.37;100958.45;103010;1310;73140;-70
2021/12/22 10:34:34;;;;;;;19.90;8.40;;;;;;;0.18;67.58;100952.14;102165;1318;59933;-71
2021/12/22 10:37:38;;;;;;;22.60;8.90;;;;;;;0.20;66.70;100956.11;102721;1310;60428;-71
2021/12/22 10:40:41;;;;;;;20.60;9.00;;;;;;;0.21;66.59;100949.43;102610;1311;72303;-72
2021/12/22 10:43:32;;;;;;;22.60;8.80;;;;;;;0.21;66.56;100948.73;103022;1318;68592;-71
2021/12/22 10:46:31;;;;;;;29.30;9.90;;;;;;;0.14;65.95;100946.61;102415;1316;73048;-71
2021/12/22 10:49:21;;;;;;;22.50;8.60;;;;;;;-0.00;66.42;100944.28;102037;1316;59790;-71
2021/12/22 10:52:09;;;;;;;23.50;9.40;;;;;;;-0.16;66.83;100937.80;102731;1317;60499;-71
2021/12/22 10:55:14;;;;;;;27.00;11.40;;;;;;;-0.28;67.39;100934.88;102597;1317;73395;-70
2021/12/22 10:58:25;;;;;;;25.80;9.90;;;;;;;-0.35;68.03;100932.55;102541;1317;68956;-69
2021/12/22 11:01:17;;;;;;;28.90;10.30;;;;;;;-0.39;68.16;100933.51;102764;1316;71361;-69
2021/12/22 11:04:17;;;;;;;25.40;8.90;;;;;;;-0.46;68.67;100933.30;102633;1310;59602;-70
2021/12/22 11:07:15;;;;;;;28.70;10.30;;;;;;;-0.63;68.82;100933.76;102678;1313;59777;-70
2021/12/22 11:10:21;;;;;;;28.90;9.40;;;;;;;-0.69;69.44;100935.43;102683;1313;72079;-69
2021/12/22 11:13:08;;;;;;;25.50;9.40;;;;;;;-0.86;69.81;100932.41;102724;1317;67064;-69
2021/12/22 11:15:55;;;;;;;23.20;8.60;;;;;;;-1.00;70.61;100930.54;102715;1317;73040;-69
2021/12/22 11:18:43;;;;;;;30.00;10.60;;;;;;;-1.07;71.04;100934.33;102657;1317;60283;-71
2021/12/22 11:21:33;;;;;;;24.30;9.00;;;;;;;-1.14;71.52;100933.89;102662;1314;59699;-70
2021/12/22 11:24:21;;;;;;;19.00;7.20;;;;;;;-1.12;71.80;100931.44;102218;1314;72012;-70
2021/12/22 11:27:12;;;;;;;22.00;8.60;;;;;;;-1.06;71.81;100927.50;102383;1310;68222;-69
2021/12/22 11:29:59;;;;;;;32.80;10.60;;;;;;;-1.04;71.61;100925.56;102540;1304;72980;-71
2021/12/22 11:32:47;;;;;;;20.10;7.70;;;;;;;-1.02;71.79;100927.27;102861;1317;59807;-69
2021/12/22 11:35:39;;;;;;;19.90;7.20;;;;;;;-1.03;71.60;100927.80;102833;1316;60535;-70
2021/12/22 11:38:30;;;;;;;18.40;8.00;;;;;;;-1.03;71.92;100928.67;102476;1316;72247;-70
2021/12/22 11:41:20;;;;;;;19.70;7.60;;;;;;;-0.98;72.10;100929.13;102766;1317;68041;-69
2021/12/22 11:44:07;;;;;;;29.70;10.10;;;;;;;-0.95;72.14;100927.15;102449;1314;71812;-69
2021/12/22 11:47:04;;;;;;;28.00;10.30;;;;;;;-0.97;71.85;100927.02;102857;1311;59729;-70
2021/12/22 11:50:01;;;;;;;25.00;9.40;;;;;;;-0.97;72.27;100927.20;103067;1317;60357;-72
2021/12/22 11:53:05;;;;;;;21.70;9.00;;;;;;;-0.98;72.18;100926.17;102416;1317;74639;-73
2021/12/22 11:55:58;;;;;;;21.70;8.40;;;;;;;-1.03;72.29;100921.89;102689;1311;66489;-74
2021/12/22 11:58:48;;;;;;;19.60;7.80;;;;;;;-1.09;72.57;100920.41;102513;1317;71624;-74
2021/12/22 12:01:36;;;;;;;18.50;7.90;;;;;;;-1.16;73.09;100919.83;102790;1312;59824;-74
2021/12/22 12:04:23;;;;;;;16.20;6.40;;;;;;;-1.22;72.79;100920.27;102465;1317;59780;-73
2021/12/22 12:07:10;;;;;;;16.00;6.30;;;;;;;-1.33;72.79;100916.59;101900;1315;1003907;-73
2021/12/22 12:10:41;;;;;;;18.70;6.80;;;;;;;-1.45;72.99;100912.23;102514;1316;65876;-75
2021/12/22 12:13:44;;;;;;;15.80;6.40;;;;;;;-1.54;73.11;100914.65;102636;1311;73001;-73
2021/12/22 12:23:32;;;;;;;17.30;6.70;;;;;;;-1.73;73.95;100915.08;102947;1314;73887;-71
2021/12/22 12:26:40;;;;;;;17.40;7.40;;;;;;;-1.80;74.20;100913.59;102907;1311;68149;-71
2021/12/22 12:30:03;;;;;;;19.10;7.40;;;;;;;-1.84;74.67;100916.26;102515;1317;73327;-68
2021/12/22 12:32:53;;;;;;;19.00;7.30;;;;;;;-1.88;74.85;100917.02;102226;1317;59782;-69
2021/12/22 12:35:55;;;;;;;22.10;7.10;;;;;;;-1.89;74.68;100919.45;102208;1314;59706;-72
2021/12/22 12:38:55;;;;;;;18.30;7.30;;;;;;;-1.94;74.86;100922.46;102629;1316;70829;-71
2021/12/22 12:42:00;;;;;;;17.10;6.80;;;;;;;-2.02;74.90;100923.09;102160;1314;65947;-70
2021/12/22 12:44:47;;;;;;;20.60;6.70;;;;;;;-2.03;75.48;100929.55;102254;1316;73180;-72
2021/12/22 12:47:34;;;;;;;16.70;6.70;;;;;;;-2.05;75.68;100928.52;102667;1317;59729;-70
2021/12/22 12:50:25;;;;;;;16.80;7.10;;;;;;;-2.11;75.99;100933.10;102495;1314;60531;-70
2021/12/22 12:53:20;;;;;;;17.30;6.90;;;;;;;-2.16;76.08;100934.38;102670;1314;73363;-71
2021/12/22 12:56:10;;;;;;;15.60;6.00;;;;;;;-2.20;76.27;100937.58;103131;1310;67355;-69
2021/12/22 12:59:02;;;;;;;16.70;6.20;;;;;;;-2.24;76.56;100937.09;103537;1313;74475;-70
2021/12/22 13:01:50;;;;;;;16.50;7.20;;;;;;;-2.27;76.68;100932.94;102986;1314;59786;-73
2021/12/22 13:04:42;;;;;;;14.30;5.10;;;;;;;-2.29;77.12;100929.83;102801;1317;59466;-72
2021/12/22 13:07:34;;;;;;;13.20;4.80;;;;;;;-2.31;77.35;100924.29;102419;1316;73224;-72
2021/12/22 13:10:25;;;;;;;14.10;6.20;;;;;;;-2.33;77.53;100920.84;102771;1317;66988;-70
2021/12/22 13:13:15;;;;;;;17.10;6.90;;;;;;;-2.33;77.80;100917.88;102473;1311;1002365;-66
2021/12/22 13:16:17;;;;;;;16.20;6.10;;;;;;;-2.33;77.70;100916.66;102669;1314;59711;-69
2021/12/22 13:19:05;;;;;;;16.80;6.40;;;;;;;-2.33;78.06;100918.40;102457;1316;59657;-72
2021/12/22 13:21:53;;;;;;;16.10;6.50;;;;;;;-2.31;78.36;100917.34;102523;1316;72105;-75